createdAt,value
2023-02-11T00:01:39.758Z,88.47
2023-02-11T00:06:43.211Z,88.42
2023-02-11T00:11:46.150Z,88.31
2023-02-11T00:16:49.072Z,88.14
2023-02-11T00:21:52.019Z,88.00
2023-02-11T00:26:54.960Z,87.91
2023-02-11T00:31:58.170Z,87.82
2023-02-11T00:37:01.648Z,87.78
2023-02-11T00:42:04.883Z,87.68
2023-02-11T00:47:07.790Z,87.71
2023-02-11T00:52:10.752Z,87.61
2023-02-11T00:57:13.724Z,87.56
2023-02-11T01:02:17.275Z,87.56
2023-02-11T01:07:20.183Z,87.54
2023-02-11T01:12:24.315Z,87.50
2023-02-11T01:17:27.307Z,87.54
2023-02-11T01:22:30.303Z,87.46
2023-02-11T01:27:33.317Z,87.43
2023-02-11T01:32:36.624Z,87.37
2023-02-11T01:37:39.642Z,87.36
2023-02-11T01:42:43.812Z,87.29
2023-02-11T01:47:46.778Z,87.29
2023-02-11T01:52:49.955Z,87.32
2023-02-11T01:57:57.300Z,87.20
2023-02-11T02:03:18.150Z,87.18
2023-02-11T02:08:40.847Z,87.11
2023-02-11T02:13:45.074Z,87.04
2023-02-11T02:19:32.820Z,87.02
2023-02-11T02:25:01.235Z,87.10
2023-02-11T02:30:10.126Z,87.19
2023-02-11T02:35:23.142Z,87.14
2023-02-11T02:40:33.643Z,87.01
2023-02-11T02:45:36.844Z,87.02
2023-02-11T02:50:39.847Z,86.99
2023-02-11T02:56:18.035Z,86.96
2023-02-11T03:01:56.504Z,86.97
2023-02-11T03:07:33.060Z,86.99
2023-02-11T03:12:38.675Z,86.96
2023-02-11T03:17:48.370Z,86.92
2023-02-11T03:23:05.031Z,86.85
2023-02-11T03:28:27.964Z,86.74
2023-02-11T03:33:43.151Z,86.74
2023-02-11T03:38:52.287Z,86.75
2023-02-11T03:43:59.553Z,86.64
2023-02-11T03:49:13.538Z,86.60
2023-02-11T03:54:24.114Z,86.53
2023-02-11T03:59:28.459Z,86.46
2023-02-11T04:04:31.622Z,86.40
2023-02-11T04:09:35.482Z,86.44
2023-02-11T04:14:38.669Z,86.39
2023-02-11T04:19:41.828Z,86.38
2023-02-11T04:24:44.738Z,86.28
2023-02-11T04:29:47.673Z,86.28
2023-02-11T04:34:50.769Z,86.32
2023-02-11T04:39:53.693Z,86.29
2023-02-11T04:44:56.615Z,86.29
2023-02-11T04:49:59.670Z,86.49
2023-02-11T04:55:02.786Z,86.66
2023-02-11T05:00:07.113Z,86.69
2023-02-11T05:05:10.256Z,86.59
2023-02-11T05:10:13.164Z,86.70
2023-02-11T05:15:16.392Z,87.01
2023-02-11T05:20:19.566Z,87.49
2023-02-11T05:25:22.665Z,87.95
2023-02-11T05:30:25.867Z,88.15
2023-02-11T05:35:28.943Z,88.35
2023-02-11T05:40:31.873Z,88.51
2023-02-11T05:45:35.012Z,88.67
2023-02-11T05:50:38.107Z,88.93
2023-02-11T05:55:41.189Z,89.17
2023-02-11T06:00:44.237Z,89.34
2023-02-11T06:05:47.555Z,89.46
2023-02-11T06:10:50.569Z,89.46
2023-02-11T06:16:02.144Z,89.56
2023-02-11T06:21:10.516Z,89.72
2023-02-11T06:26:23.710Z,89.78
2023-02-11T06:31:27.604Z,89.90
2023-02-11T06:36:30.972Z,89.86
2023-02-11T06:41:34.499Z,89.99
2023-02-11T06:46:37.466Z,90.03
2023-02-11T06:51:41.141Z,90.05
2023-02-11T06:56:44.187Z,90.13
2023-02-11T07:01:47.946Z,90.21
2023-02-11T07:06:50.888Z,90.33
2023-02-11T07:11:53.860Z,90.49
2023-02-11T07:16:56.837Z,90.68
2023-02-11T07:21:59.882Z,90.74
2023-02-11T07:27:02.875Z,90.67
2023-02-11T07:32:07.188Z,90.59
2023-02-11T07:37:12.692Z,90.44
2023-02-11T07:42:17.287Z,90.50
2023-02-11T07:47:21.169Z,90.56
2023-02-11T07:52:24.378Z,90.64
2023-02-11T07:57:27.920Z,90.75
2023-02-11T08:02:31.154Z,91.07
2023-02-11T08:07:37.257Z,91.24
2023-02-11T08:12:40.876Z,91.53
2023-02-11T08:17:46.297Z,91.67
2023-02-11T08:22:50.339Z,91.80
2023-02-11T08:27:53.688Z,91.87
2023-02-11T08:32:56.821Z,91.93
2023-02-11T08:37:59.716Z,92.07
2023-02-11T08:43:03.149Z,92.04
2023-02-11T08:48:06.702Z,92.11
2023-02-11T08:53:09.800Z,92.23
2023-02-11T08:58:12.862Z,92.18
2023-02-11T09:03:17.018Z,92.25
2023-02-11T09:08:21.415Z,92.25
2023-02-11T09:13:24.376Z,92.31
2023-02-11T09:18:30.293Z,92.34
2023-02-11T09:23:36.136Z,92.46
2023-02-11T09:28:39.920Z,92.47
2023-02-11T09:33:58.949Z,92.60
2023-02-11T09:39:03.582Z,92.67
2023-02-11T09:44:18.699Z,92.71
2023-02-11T09:49:53.212Z,92.71
2023-02-11T09:55:04.310Z,92.61
2023-02-11T10:00:24.605Z,92.50
2023-02-11T10:05:36.191Z,92.56
2023-02-11T10:10:55.625Z,92.64
2023-02-11T10:16:25.499Z,92.61
2023-02-11T10:21:47.928Z,92.64
2023-02-11T10:26:52.738Z,92.59
2023-02-11T10:31:58.311Z,92.69
2023-02-11T10:37:01.563Z,92.65
2023-02-11T10:42:11.624Z,92.71
2023-02-11T10:47:23.686Z,92.74
2023-02-11T10:52:30.796Z,92.76
2023-02-11T10:57:45.735Z,93.00
2023-02-11T11:03:00.089Z,92.96
2023-02-11T11:08:08.114Z,93.03
2023-02-11T11:13:23.552Z,93.04
2023-02-11T11:18:26.672Z,93.09
2023-02-11T11:23:31.774Z,93.25
2023-02-11T11:28:47.281Z,93.46
2023-02-11T11:33:53.849Z,93.35
2023-02-11T11:39:01.952Z,93.29
2023-02-11T11:44:28.101Z,93.29
2023-02-11T11:49:44.205Z,93.32
2023-02-11T11:54:58.219Z,93.32
2023-02-11T12:00:01.202Z,93.26
2023-02-11T12:05:36.382Z,93.29
2023-02-11T12:11:25.860Z,93.26
2023-02-11T12:17:03.821Z,93.44
2023-02-11T12:22:54.216Z,93.24
2023-02-11T12:28:37.244Z,93.18
2023-02-11T12:34:08.376Z,93.11
2023-02-11T12:39:51.965Z,93.22
2023-02-11T12:45:14.424Z,93.35
2023-02-11T12:50:59.336Z,93.43
2023-02-11T12:56:17.836Z,93.50
2023-02-11T13:01:35.158Z,93.39
2023-02-11T13:06:50.449Z,93.31
2023-02-11T13:12:19.638Z,93.40
2023-02-11T13:18:01.413Z,93.64
2023-02-11T13:23:52.377Z,93.61
2023-02-11T13:29:17.698Z,93.63
2023-02-11T13:34:44.797Z,93.71
2023-02-11T13:40:21.526Z,93.91
2023-02-11T13:45:40.465Z,94.02
2023-02-11T13:50:51.158Z,94.27
2023-02-11T13:56:12.674Z,94.15
2023-02-11T14:02:12.098Z,94.32
2023-02-11T14:07:52.687Z,94.36
2023-02-11T14:13:22.129Z,94.21
2023-02-11T14:19:01.097Z,94.28
2023-02-11T14:24:11.184Z,94.13
2023-02-11T14:29:26.888Z,94.09
2023-02-11T14:34:53.797Z,94.21
2023-02-11T14:40:39.149Z,94.23
2023-02-11T14:45:51.267Z,94.04
2023-02-11T14:51:19.209Z,94.12
2023-02-11T14:56:31.250Z,94.07
2023-02-11T15:01:41.531Z,94.03
2023-02-11T15:06:49.780Z,94.11
2023-02-11T15:11:54.065Z,94.17
2023-02-11T15:17:04.661Z,94.29
2023-02-11T15:22:45.822Z,94.35
2023-02-11T15:27:52.968Z,94.39
2023-02-11T15:33:03.715Z,94.47
2023-02-11T15:38:08.145Z,94.47
2023-02-11T15:43:11.865Z,94.63
2023-02-11T15:48:22.283Z,94.69
2023-02-11T15:53:32.842Z,94.78
2023-02-11T15:58:42.888Z,94.79
2023-02-11T16:03:50.951Z,94.89
2023-02-11T16:09:17.317Z,94.83
2023-02-11T16:14:37.245Z,94.64
2023-02-11T16:19:47.519Z,94.52
2023-02-11T16:24:54.817Z,94.46
2023-02-11T16:29:58.982Z,94.54
2023-02-11T16:35:02.112Z,94.46
2023-02-11T16:40:06.720Z,94.43
2023-02-11T16:45:10.174Z,94.42
2023-02-11T16:50:25.008Z,94.40
2023-02-11T16:55:32.671Z,94.31
2023-02-11T17:00:37.514Z,94.21
2023-02-11T17:05:58.035Z,94.35
2023-02-11T17:11:02.216Z,94.13
2023-02-11T17:16:05.571Z,94.11
2023-02-11T17:21:09.007Z,93.62
2023-02-11T17:26:12.016Z,93.57
2023-02-11T17:31:15.468Z,93.57
2023-02-11T17:36:18.542Z,92.00
2023-02-11T17:41:21.523Z,91.40
2023-02-11T17:46:25.369Z,91.69
2023-02-11T17:51:35.368Z,91.31
2023-02-11T17:56:38.775Z,91.07
2023-02-11T18:01:43.449Z,91.23
2023-02-11T18:06:47.463Z,91.07
2023-02-11T18:11:52.677Z,90.84
2023-02-11T18:16:55.821Z,89.52
2023-02-11T18:22:01.090Z,88.66
2023-02-11T18:27:04.492Z,88.43
2023-02-11T18:32:07.537Z,87.95
2023-02-11T18:37:13.550Z,88.23
2023-02-11T18:42:16.575Z,88.33
2023-02-11T18:47:19.512Z,88.49
2023-02-11T18:52:22.448Z,87.88
2023-02-11T18:57:25.455Z,88.30
2023-02-11T19:02:30.121Z,88.53
2023-02-11T19:07:33.390Z,88.89
2023-02-11T19:12:39.408Z,89.00
2023-02-11T19:17:42.437Z,88.67
2023-02-11T19:22:45.582Z,88.46
2023-02-11T19:27:48.555Z,88.61
2023-02-11T19:32:52.780Z,88.37
2023-02-11T19:37:55.778Z,88.69
2023-02-11T19:42:58.888Z,88.93
2023-02-11T19:48:01.917Z,89.13
2023-02-11T19:53:05.016Z,88.88
2023-02-11T19:58:08.321Z,88.89
2023-02-11T20:03:11.430Z,89.01
2023-02-11T20:08:17.330Z,89.21
2023-02-11T20:13:20.438Z,89.33
2023-02-11T20:18:23.588Z,89.36
2023-02-11T20:23:26.834Z,89.36
2023-02-11T20:28:34.102Z,89.04
2023-02-11T20:33:39.313Z,88.97
2023-02-11T20:38:44.141Z,88.81
2023-02-11T20:44:00.392Z,88.56
2023-02-11T20:49:25.347Z,88.78
2023-02-11T20:54:28.824Z,88.89
2023-02-11T20:59:33.449Z,89.05
2023-02-11T21:04:40.153Z,89.19
2023-02-11T21:09:57.347Z,89.20
2023-02-11T21:15:11.939Z,89.04
2023-02-11T21:20:15.518Z,88.71
2023-02-11T21:25:18.634Z,88.59
2023-02-11T21:30:22.678Z,88.50
2023-02-11T21:35:26.613Z,88.74
2023-02-11T21:40:29.960Z,88.96
2023-02-11T21:45:33.179Z,89.03
2023-02-11T21:50:56.099Z,89.16
2023-02-11T22:02:01.918Z,89.11
2023-02-11T22:07:06.359Z,89.21
2023-02-11T22:12:16.432Z,89.22
2023-02-11T22:17:21.204Z,89.24
2023-02-11T22:22:24.563Z,89.42
2023-02-11T22:27:31.640Z,89.68
2023-02-11T22:32:41.681Z,90.10
2023-02-11T22:37:45.554Z,90.31
2023-02-11T22:42:49.585Z,90.75
2023-02-11T22:47:56.238Z,91.12
2023-02-11T22:53:00.285Z,90.67
2023-02-11T22:58:04.095Z,90.86
2023-02-11T23:03:09.181Z,90.34
2023-02-11T23:08:12.432Z,90.03
2023-02-11T23:13:15.624Z,89.68
2023-02-11T23:18:18.575Z,87.68
2023-02-11T23:23:21.673Z,86.91
2023-02-11T23:28:24.698Z,86.06
2023-02-11T23:33:27.810Z,86.08
2023-02-11T23:38:30.838Z,86.68
2023-02-11T23:43:33.883Z,85.58
2023-02-11T23:48:37.853Z,84.69
2023-02-11T23:53:41.914Z,84.90
2023-02-11T23:58:49.342Z,85.13
